Time;durP1;ratioP1;P1;durP2;ratioP2;P2;SDS_P1;SDS_P2;PMS_P1;PMS_P2;Temp;Humidity;BMP_temperature;BMP_pressure;BME280_temperature;BME280_humidity;BME280_pressure;Samples;Min_cycle;Max_cycle;Signal;HPM_P1;HPM_P2
2024/02/24 00:00:09;;;;;;;0.43;0.37;;;6.00;99.90;;;;;;5079896;28;20408;-79
2024/02/24 00:02:34;;;;;;;1.00;0.40;;;5.90;99.90;;;;;;5077688;28;20376;-79
2024/02/24 00:05:00;;;;;;;0.50;0.40;;;5.80;99.90;;;;;;5071144;28;20432;-80
2024/02/24 00:07:25;;;;;;;0.73;0.40;;;5.70;99.90;;;;;;5079537;28;20383;-79
2024/02/24 00:09:51;;;;;;;0.80;0.40;;;5.70;99.90;;;;;;5085495;28;20470;-78
2024/02/24 00:12:16;;;;;;;0.50;0.50;;;5.70;99.90;;;;;;5085546;28;20856;-80
2024/02/24 00:14:42;;;;;;;0.80;0.60;;;5.70;99.90;;;;;;5083384;28;20391;-81
2024/02/24 00:17:07;;;;;;;0.60;0.50;;;5.60;99.90;;;;;;5078787;28;20398;-80
2024/02/24 00:19:33;;;;;;;0.75;0.50;;;5.60;99.90;;;;;;5092407;28;20905;-81
2024/02/24 00:21:58;;;;;;;0.90;0.40;;;5.60;99.90;;;;;;5075095;28;20410;-80
2024/02/24 00:24:24;;;;;;;0.60;0.50;;;5.70;99.90;;;;;;5082522;28;20732;-80
2024/02/24 00:26:50;;;;;;;0.70;0.40;;;5.60;99.90;;;;;;5084670;28;20383;-80
2024/02/24 00:29:15;;;;;;;0.50;0.40;;;5.60;99.90;;;;;;5085926;28;20395;-80
2024/02/24 00:31:41;;;;;;;0.50;0.40;;;5.70;99.90;;;;;;5094515;28;20386;-80
2024/02/24 00:34:06;;;;;;;1.50;0.45;;;5.60;99.90;;;;;;5107255;28;20455;-80
2024/02/24 00:36:32;;;;;;;1.17;0.70;;;5.70;99.90;;;;;;5079551;28;20411;-81
2024/02/24 00:38:58;;;;;;;2.00;0.40;;;5.60;99.90;;;;;;5071470;28;20389;-78
2024/02/24 00:41:24;;;;;;;0.40;0.40;;;5.50;99.90;;;;;;5072782;28;20753;-76
2024/02/24 00:43:49;;;;;;;1.50;0.50;;;5.50;99.90;;;;;;5074833;28;20771;-76
2024/02/24 00:46:15;;;;;;;1.00;0.50;;;5.50;99.90;;;;;;5089520;28;20447;-80
2024/02/24 00:48:41;;;;;;;1.00;0.50;;;5.60;99.90;;;;;;5087354;28;20379;-78
2024/02/24 00:51:06;;;;;;;1.45;0.40;;;5.50;99.90;;;;;;5085832;28;20380;-78
2024/02/24 00:53:32;;;;;;;1.00;0.60;;;5.50;99.90;;;;;;5084333;28;20406;-78
2024/02/24 00:55:57;;;;;;;1.00;0.70;;;5.50;99.90;;;;;;5085401;28;20403;-78
2024/02/24 00:58:23;;;;;;;0.90;0.40;;;5.50;99.90;;;;;;5081986;28;20392;-78
2024/02/24 01:00:48;;;;;;;1.40;0.40;;;5.40;99.90;;;;;;5086528;28;20387;-78
2024/02/24 01:03:14;;;;;;;0.73;0.60;;;5.30;99.90;;;;;;5090190;28;20387;-79
2024/02/24 01:05:41;;;;;;;0.70;0.70;;;5.20;99.90;;;;;;5079425;28;20440;-78
2024/02/24 01:08:07;;;;;;;1.10;0.50;;;5.00;99.90;;;;;;5079327;28;20918;-79
2024/02/24 01:10:33;;;;;;;0.60;0.40;;;4.90;99.90;;;;;;5082093;28;20392;-78
2024/02/24 01:12:59;;;;;;;0.88;0.40;;;5.00;99.90;;;;;;5081444;28;20391;-79
2024/02/24 01:15:25;;;;;;;0.50;0.45;;;4.90;99.90;;;;;;5082153;28;20384;-79
2024/02/24 01:17:55;;;;;;;0.80;0.70;;;4.90;99.90;;;;;;5081165;28;20383;-79
2024/02/24 01:20:20;;;;;;;1.00;0.60;;;4.90;99.90;;;;;;5083276;28;20394;-79
2024/02/24 01:22:51;;;;;;;0.60;0.40;;;4.90;99.90;;;;;;5080056;28;20443;-78
2024/02/24 01:25:17;;;;;;;0.88;0.40;;;5.00;99.90;;;;;;5077541;28;20388;-80
2024/02/24 01:27:43;;;;;;;0.83;0.60;;;4.90;99.90;;;;;;5077172;28;20794;-79
2024/02/24 01:30:09;;;;;;;0.70;0.50;;;4.90;99.90;;;;;;5074782;28;20384;-79
2024/02/24 01:32:35;;;;;;;0.50;0.40;;;4.90;99.90;;;;;;5076074;28;20379;-79
2024/02/24 01:35:02;;;;;;;1.20;0.60;;;5.10;99.90;;;;;;5075334;28;20384;-79
2024/02/24 01:37:27;;;;;;;1.42;0.60;;;5.10;99.90;;;;;;5081222;28;20402;-80
2024/02/24 01:39:53;;;;;;;0.60;0.40;;;5.20;99.90;;;;;;5095719;28;20890;-79
2024/02/24 01:42:18;;;;;;;0.65;0.50;;;5.20;99.90;;;;;;5065728;28;20425;-80
2024/02/24 01:44:44;;;;;;;0.50;0.40;;;5.20;99.90;;;;;;5067708;28;20387;-78
2024/02/24 01:47:09;;;;;;;0.70;0.50;;;5.10;99.90;;;;;;5080006;28;20382;-78
2024/02/24 01:49:37;;;;;;;0.73;0.63;;;5.20;99.90;;;;;;5086378;28;20918;-79
2024/02/24 01:52:04;;;;;;;0.70;0.60;;;5.20;99.90;;;;;;5076942;28;20387;-79
2024/02/24 01:54:30;;;;;;;0.60;0.47;;;5.30;99.90;;;;;;5076342;28;20392;-79
2024/02/24 01:56:56;;;;;;;0.60;0.50;;;5.10;99.90;;;;;;5075764;28;20395;-80
2024/02/24 01:59:22;;;;;;;0.93;0.50;;;5.20;99.90;;;;;;5060695;28;20750;-79
2024/02/24 02:01:47;;;;;;;0.40;0.40;;;5.20;99.90;;;;;;5054821;28;20386;-79
2024/02/24 02:04:13;;;;;;;1.40;0.40;;;5.20;99.90;;;;;;5057927;28;20465;-78
2024/02/24 02:06:38;;;;;;;0.60;0.40;;;5.20;99.90;;;;;;5077562;28;20852;-80
2024/02/24 02:09:04;;;;;;;0.50;0.40;;;5.20;99.90;;;;;;5077103;28;20830;-80
2024/02/24 02:11:29;;;;;;;0.60;0.40;;;5.10;99.90;;;;;;5075777;28;20380;-80
2024/02/24 02:13:55;;;;;;;0.80;0.60;;;5.00;99.90;;;;;;5077350;28;20393;-80
2024/02/24 02:16:20;;;;;;;0.50;0.50;;;5.10;99.90;;;;;;5081161;28;20408;-79
2024/02/24 02:18:46;;;;;;;1.30;0.50;;;5.10;99.90;;;;;;5076896;28;20387;-80
2024/02/24 02:21:12;;;;;;;0.70;0.50;;;5.00;99.90;;;;;;5076540;28;20379;-80
2024/02/24 02:23:37;;;;;;;0.50;0.50;;;5.10;99.90;;;;;;5076764;28;20751;-79
2024/02/24 02:26:03;;;;;;;0.93;0.50;;;5.10;99.90;;;;;;5075631;28;20407;-79
2024/02/24 02:28:28;;;;;;;0.70;0.50;;;5.00;99.90;;;;;;5077102;28;20376;-79
2024/02/24 02:30:55;;;;;;;0.80;0.60;;;5.00;99.90;;;;;;5081914;28;20392;-80
2024/02/24 02:33:21;;;;;;;0.85;0.50;;;5.00;99.90;;;;;;5060456;28;20400;-80
2024/02/24 02:35:46;;;;;;;0.60;0.60;;;4.90;99.90;;;;;;5074992;28;20411;-80
2024/02/24 02:38:12;;;;;;;0.93;0.63;;;4.90;99.90;;;;;;5075336;28;20402;-80
2024/02/24 02:40:37;;;;;;;0.50;0.40;;;4.90;99.90;;;;;;5076139;28;20384;-80
2024/02/24 02:43:03;;;;;;;0.93;0.60;;;4.90;99.90;;;;;;5077395;28;20867;-80
2024/02/24 02:45:28;;;;;;;1.00;0.50;;;4.90;99.90;;;;;;5077474;28;20879;-80
2024/02/24 02:47:54;;;;;;;0.80;0.80;;;4.90;99.90;;;;;;5073934;28;20962;-79
2024/02/24 02:50:20;;;;;;;1.00;0.70;;;4.90;99.90;;;;;;5060335;28;20381;-80
2024/02/24 02:52:46;;;;;;;0.73;0.50;;;4.80;99.90;;;;;;5076464;28;20396;-79
2024/02/24 02:55:11;;;;;;;0.50;0.50;;;4.70;99.90;;;;;;5083331;28;20407;-79
2024/02/24 02:57:37;;;;;;;0.65;0.45;;;4.60;99.90;;;;;;5083348;28;20507;-79
2024/02/24 03:00:05;;;;;;;1.50;0.50;;;4.60;99.90;;;;;;5084574;28;20438;-79
2024/02/24 03:02:31;;;;;;;1.10;0.60;;;4.60;99.90;;;;;;5082711;28;20451;-79
2024/02/24 03:04:57;;;;;;;2.20;0.80;;;4.60;99.90;;;;;;5076109;28;20796;-80
2024/02/24 03:07:22;;;;;;;1.05;0.77;;;4.60;99.90;;;;;;5070595;28;20415;-81
2024/02/24 03:09:48;;;;;;;1.00;0.70;;;4.60;99.90;;;;;;5077135;28;20879;-80
2024/02/24 03:12:14;;;;;;;0.80;0.60;;;4.70;99.90;;;;;;5076486;28;20384;-78
2024/02/24 03:14:42;;;;;;;2.40;0.70;;;4.60;99.90;;;;;;5080581;28;20411;-77
2024/02/24 03:17:07;;;;;;;0.68;0.60;;;4.70;99.90;;;;;;5087795;28;20412;-77
2024/02/24 03:19:33;;;;;;;1.10;0.90;;;4.70;99.90;;;;;;5086564;28;20391;-77
2024/02/24 03:21:58;;;;;;;1.40;0.70;;;4.70;99.90;;;;;;5085425;28;20418;-78
2024/02/24 03:24:24;;;;;;;1.10;0.80;;;4.70;99.90;;;;;;5078617;28;20463;-78
2024/02/24 03:26:49;;;;;;;1.37;0.90;;;4.70;99.90;;;;;;5089124;28;20411;-77
2024/02/24 03:29:14;;;;;;;1.30;0.77;;;4.70;99.90;;;;;;5089314;28;20383;-77
2024/02/24 03:31:40;;;;;;;0.90;0.90;;;4.70;99.90;;;;;;5092913;28;20392;-77
2024/02/24 03:34:07;;;;;;;1.50;0.70;;;4.80;99.90;;;;;;5088878;28;20395;-77
2024/02/24 03:36:32;;;;;;;1.05;0.80;;;4.90;99.90;;;;;;5081067;28;20398;-79
2024/02/24 03:38:58;;;;;;;1.10;0.70;;;4.80;99.90;;;;;;5070670;28;20974;-77
2024/02/24 03:41:25;;;;;;;0.80;0.80;;;4.80;99.90;;;;;;5053992;28;20507;-78
2024/02/24 03:43:51;;;;;;;1.00;0.85;;;4.90;99.90;;;;;;5073770;28;20387;-78
2024/02/24 03:46:16;;;;;;;2.08;0.70;;;4.90;99.90;;;;;;5073337;28;20380;-77
2024/02/24 03:48:45;;;;;;;1.00;0.50;;;4.90;99.90;;;;;;5073457;28;20462;-77
2024/02/24 03:51:11;;;;;;;1.90;0.82;;;4.90;99.90;;;;;;5072839;28;20387;-77
2024/02/24 03:53:36;;;;;;;0.90;0.60;;;4.90;99.90;;;;;;5081136;28;20409;-77
2024/02/24 03:56:02;;;;;;;0.63;0.60;;;4.90;99.90;;;;;;5076097;28;20413;-80
2024/02/24 03:58:28;;;;;;;0.60;0.60;;;4.80;99.90;;;;;;5076173;28;20398;-79
2024/02/24 04:00:53;;;;;;;0.80;0.70;;;4.80;99.90;;;;;;5076543;28;20383;-78
2024/02/24 04:03:19;;;;;;;0.77;0.60;;;4.80;99.90;;;;;;5094463;28;20417;-78
2024/02/24 04:05:46;;;;;;;0.73;0.70;;;4.90;99.90;;;;;;5097592;28;20393;-78
2024/02/24 04:08:12;;;;;;;0.80;0.50;;;4.90;99.90;;;;;;5094972;28;20457;-80
2024/02/24 04:10:37;;;;;;;0.60;0.50;;;4.90;99.90;;;;;;5094435;28;20916;-79
2024/02/24 04:13:03;;;;;;;0.80;0.70;;;4.90;99.90;;;;;;5076322;28;20393;-80
2024/02/24 04:15:28;;;;;;;1.00;0.55;;;4.90;99.90;;;;;;5071125;28;20471;-80
2024/02/24 04:17:54;;;;;;;0.60;0.60;;;5.00;99.90;;;;;;5090387;28;20386;-79
2024/02/24 04:20:20;;;;;;;0.60;0.60;;;5.00;99.90;;;;;;5076989;28;20441;-79
2024/02/24 04:22:45;;;;;;;0.80;0.70;;;5.20;99.90;;;;;;5072812;28;20380;-79
2024/02/24 04:25:10;;;;;;;0.97;0.60;;;5.10;99.90;;;;;;5074508;28;20882;-80
2024/02/24 04:27:36;;;;;;;1.10;0.60;;;5.00;99.90;;;;;;5088409;28;20386;-79
2024/02/24 04:30:02;;;;;;;0.63;0.50;;;5.00;99.90;;;;;;5073037;28;20405;-79
2024/02/24 04:32:29;;;;;;;0.70;0.50;;;5.10;99.90;;;;;;5074572;28;20821;-78
2024/02/24 04:34:54;;;;;;;1.20;0.60;;;5.50;99.90;;;;;;5082003;28;20791;-80
2024/02/24 04:37:20;;;;;;;0.50;0.47;;;5.70;99.90;;;;;;5098003;28;20413;-79
2024/02/24 04:39:45;;;;;;;0.68;0.50;;;5.90;99.90;;;;;;5097595;28;20390;-78
2024/02/24 04:42:11;;;;;;;0.40;0.40;;;6.00;99.90;;;;;;5097426;28;20382;-79
2024/02/24 04:44:37;;;;;;;0.70;0.60;;;6.00;99.90;;;;;;5078180;28;20693;-79
2024/02/24 04:47:03;;;;;;;0.40;0.40;;;6.10;99.90;;;;;;5065059;28;20398;-80
2024/02/24 04:49:29;;;;;;;0.77;0.40;;;6.00;99.90;;;;;;5068887;28;20441;-80
2024/02/24 04:51:54;;;;;;;1.10;0.40;;;6.00;99.90;;;;;;5075484;28;20383;-79
2024/02/24 04:54:20;;;;;;;0.40;0.40;;;6.00;99.90;;;;;;5075584;28;20384;-79
2024/02/24 04:56:45;;;;;;;0.50;0.30;;;6.20;99.90;;;;;;5078198;28;20414;-78
2024/02/24 04:59:11;;;;;;;0.80;0.40;;;6.30;99.90;;;;;;5080279;28;20384;-80
2024/02/24 05:01:36;;;;;;;0.70;0.40;;;6.30;99.90;;;;;;5080326;28;20422;-78
2024/02/24 05:04:02;;;;;;;0.60;0.50;;;6.00;99.90;;;;;;5073911;28;20822;-79
2024/02/24 05:06:28;;;;;;;0.50;0.40;;;6.20;99.90;;;;;;5076728;28;20422;-80
2024/02/24 05:08:55;;;;;;;0.80;0.40;;;6.10;99.90;;;;;;5081852;28;20395;-80
2024/02/24 05:11:20;;;;;;;0.60;0.40;;;6.10;99.90;;;;;;5076801;28;20387;-79
2024/02/24 05:13:46;;;;;;;1.10;0.40;;;6.00;99.90;;;;;;5077439;28;20810;-77
2024/02/24 05:16:13;;;;;;;0.60;0.50;;;6.10;99.90;;;;;;5080267;28;20428;-78
2024/02/24 05:18:39;;;;;;;0.60;0.40;;;6.20;99.90;;;;;;5078676;28;20937;-78
2024/02/24 05:21:04;;;;;;;0.50;0.40;;;6.10;99.90;;;;;;5069004;28;20394;-79
2024/02/24 05:23:30;;;;;;;0.60;0.50;;;6.10;99.90;;;;;;5075898;28;20470;-80
2024/02/24 05:25:55;;;;;;;0.40;0.40;;;6.10;99.90;;;;;;5076049;28;20871;-80
2024/02/24 05:28:21;;;;;;;0.70;0.40;;;6.20;99.90;;;;;;5076725;28;20833;-81
2024/02/24 05:30:47;;;;;;;0.67;0.40;;;6.30;99.90;;;;;;5076417;28;20376;-80
2024/02/24 05:33:17;;;;;;;0.70;0.40;;;6.10;99.90;;;;;;5054638;28;20528;-78
2024/02/24 05:35:42;;;;;;;0.70;0.50;;;6.20;99.90;;;;;;5056485;28;20893;-80
2024/02/24 05:38:08;;;;;;;0.52;0.50;;;6.20;99.90;;;;;;5057598;28;20409;-79
2024/02/24 05:40:34;;;;;;;0.88;0.40;;;6.30;99.90;;;;;;5070111;28;20405;-80
2024/02/24 05:42:59;;;;;;;0.50;0.40;;;6.20;99.90;;;;;;5076815;28;20471;-80
2024/02/24 05:45:25;;;;;;;0.90;0.40;;;6.30;99.90;;;;;;5075310;28;20760;-79
2024/02/24 05:47:50;;;;;;;1.20;0.50;;;6.40;99.90;;;;;;5082888;28;20895;-79
2024/02/24 05:50:16;;;;;;;0.43;0.30;;;6.50;99.90;;;;;;5081190;28;20399;-79
2024/02/24 05:52:41;;;;;;;0.60;0.40;;;6.50;99.90;;;;;;5076165;28;20387;-79
2024/02/24 05:55:07;;;;;;;0.70;0.40;;;6.40;99.90;;;;;;5080410;28;20837;-78
2024/02/24 05:57:33;;;;;;;0.60;0.40;;;6.10;99.90;;;;;;5096638;28;20766;-79
2024/02/24 05:59:59;;;;;;;0.60;0.43;;;5.90;99.90;;;;;;5095008;28;20382;-79
2024/02/24 06:02:24;;;;;;;0.70;0.70;;;5.80;99.90;;;;;;5083852;28;20380;-80
2024/02/24 06:04:50;;;;;;;0.73;0.70;;;5.80;99.90;;;;;;5075745;28;20895;-80
2024/02/24 06:07:16;;;;;;;0.50;0.50;;;5.80;99.90;;;;;;5077516;28;20864;-79
2024/02/24 06:09:41;;;;;;;0.70;0.60;;;5.80;99.90;;;;;;5076621;28;20438;-81
2024/02/24 06:12:07;;;;;;;0.90;0.80;;;5.70;99.90;;;;;;5072352;28;20480;-79
2024/02/24 06:14:32;;;;;;;1.30;0.80;;;5.60;99.90;;;;;;5095478;28;20452;-81
2024/02/24 06:16:58;;;;;;;1.00;0.80;;;5.50;99.90;;;;;;5094552;28;20466;-80
2024/02/24 06:19:23;;;;;;;0.50;0.40;;;5.30;99.90;;;;;;5081987;28;20380;-79
2024/02/24 06:21:49;;;;;;;0.70;0.60;;;5.30;99.90;;;;;;5075352;28;20387;-79
2024/02/24 06:24:15;;;;;;;0.90;0.63;;;5.40;99.90;;;;;;5071897;28;20427;-79
2024/02/24 06:26:41;;;;;;;0.85;0.50;;;5.40;99.90;;;;;;5075304;28;20392;-80
2024/02/24 06:29:07;;;;;;;0.60;0.50;;;5.40;99.90;;;;;;5090061;28;20397;-79
2024/02/24 06:31:33;;;;;;;1.60;0.70;;;5.30;99.90;;;;;;5090628;28;20451;-76
2024/02/24 06:33:59;;;;;;;1.70;0.60;;;5.20;99.90;;;;;;5077255;28;20441;-80
2024/02/24 06:36:25;;;;;;;1.30;0.50;;;5.10;99.90;;;;;;5076092;28;21013;-78
2024/02/24 06:38:50;;;;;;;1.10;0.50;;;5.20;99.90;;;;;;5082770;28;20384;-78
2024/02/24 06:41:17;;;;;;;1.20;0.50;;;5.20;99.90;;;;;;5079811;28;20553;-77
2024/02/24 06:43:43;;;;;;;0.77;0.52;;;5.20;99.90;;;;;;5078463;28;20390;-78
2024/02/24 06:46:10;;;;;;;1.30;0.50;;;5.20;99.90;;;;;;5061409;28;20393;-80
2024/02/24 06:48:35;;;;;;;0.68;0.43;;;5.20;99.90;;;;;;5058488;28;20412;-78
2024/02/24 06:51:00;;;;;;;0.50;0.50;;;5.40;99.90;;;;;;5059617;28;20389;-80
2024/02/24 06:53:26;;;;;;;0.50;0.40;;;5.30;99.90;;;;;;5071589;28;20885;-80
2024/02/24 06:55:52;;;;;;;0.67;0.40;;;5.30;99.90;;;;;;5080942;28;20542;-80
2024/02/24 06:58:17;;;;;;;1.20;0.40;;;5.30;99.90;;;;;;5079773;28;20445;-80
2024/02/24 07:00:42;;;;;;;0.60;0.40;;;5.40;99.90;;;;;;5080726;28;20382;-79
2024/02/24 07:03:08;;;;;;;1.35;0.45;;;5.30;99.90;;;;;;5080639;28;20408;-81
2024/02/24 07:05:34;;;;;;;0.50;0.40;;;5.20;99.90;;;;;;5082509;28;20406;-79
2024/02/24 07:07:59;;;;;;;1.00;0.50;;;5.10;99.90;;;;;;5083170;28;20392;-79
2024/02/24 07:10:25;;;;;;;0.52;0.40;;;5.10;99.90;;;;;;5084019;28;20423;-80
2024/02/24 07:12:50;;;;;;;1.70;0.40;;;4.90;99.90;;;;;;5074802;28;20387;-79
2024/02/24 07:15:16;;;;;;;0.73;0.40;;;5.00;99.90;;;;;;5076775;28;20418;-80
2024/02/24 07:17:42;;;;;;;1.10;0.40;;;5.00;99.90;;;;;;5074592;28;20438;-81
2024/02/24 07:20:09;;;;;;;2.17;0.50;;;5.00;99.90;;;;;;5076825;28;20984;-79
2024/02/24 07:22:34;;;;;;;0.80;0.40;;;5.10;99.90;;;;;;5077007;28;20376;-81
2024/02/24 07:25:00;;;;;;;0.60;0.30;;;5.20;99.90;;;;;;5075594;28;20756;-80
2024/02/24 07:27:25;;;;;;;2.05;0.40;;;5.40;99.90;;;;;;5075896;28;20446;-81
2024/02/24 07:29:51;;;;;;;1.10;0.40;;;5.40;99.90;;;;;;5077825;28;20400;-80
2024/02/24 07:32:16;;;;;;;1.80;0.70;;;5.40;99.90;;;;;;5077758;28;20882;-79
2024/02/24 07:34:42;;;;;;;1.87;0.40;;;5.50;99.90;;;;;;5078761;28;20767;-80
2024/02/24 07:37:08;;;;;;;0.40;0.30;;;5.60;99.90;;;;;;5073584;28;20798;-81
2024/02/24 07:39:35;;;;;;;0.40;0.40;;;5.70;99.90;;;;;;5073391;28;20396;-82
2024/02/24 07:42:01;;;;;;;0.60;0.50;;;5.80;99.90;;;;;;5073425;28;20384;-81
2024/02/24 07:44:26;;;;;;;0.60;0.30;;;5.80;99.90;;;;;;5073880;28;20525;-80
2024/02/24 07:46:53;;;;;;;2.07;0.80;;;5.90;99.90;;;;;;5072264;28;20876;-82
2024/02/24 07:49:18;;;;;;;0.50;0.40;;;5.80;99.90;;;;;;5070852;28;20384;-80
2024/02/24 07:51:44;;;;;;;1.10;0.60;;;5.90;99.90;;;;;;5070060;28;20392;-80
2024/02/24 07:54:10;;;;;;;1.30;0.63;;;5.80;99.90;;;;;;5066907;28;20397;-80
2024/02/24 07:56:35;;;;;;;0.60;0.40;;;5.80;99.90;;;;;;5069724;28;20412;-80
2024/02/24 07:59:01;;;;;;;2.60;0.60;;;5.80;99.90;;;;;;5070858;28;20391;-80
2024/02/24 08:01:27;;;;;;;1.30;0.50;;;5.90;99.90;;;;;;5073848;28;20423;-81
2024/02/24 08:03:52;;;;;;;1.63;0.50;;;5.90;99.90;;;;;;5073129;28;20396;-81
2024/02/24 08:06:18;;;;;;;1.30;0.50;;;5.90;99.90;;;;;;5072986;28;20576;-82
2024/02/24 08:08:43;;;;;;;1.50;0.60;;;5.90;99.90;;;;;;5077302;28;20384;-81
2024/02/24 08:11:09;;;;;;;1.30;0.60;;;5.90;99.90;;;;;;5077829;28;20384;-80
2024/02/24 08:13:41;;;;;;;1.37;0.40;;;5.90;99.90;;;;;;5076633;28;20970;-80
2024/02/24 08:16:07;;;;;;;0.80;0.50;;;6.00;99.90;;;;;;5076592;28;20407;-80
2024/02/24 08:18:33;;;;;;;2.13;0.60;;;5.90;99.90;;;;;;5075606;28;20485;-79
2024/02/24 08:21:01;;;;;;;1.00;0.40;;;6.00;99.90;;;;;;5078274;28;20441;-81
2024/02/24 08:23:27;;;;;;;1.60;0.40;;;5.90;99.90;;;;;;5076035;28;20395;-82
2024/02/24 08:25:52;;;;;;;1.83;0.50;;;6.00;99.90;;;;;;5078931;28;21041;-80
2024/02/24 08:28:17;;;;;;;1.20;0.60;;;6.00;99.90;;;;;;5079508;28;20388;-80
2024/02/24 08:30:43;;;;;;;2.00;0.40;;;6.20;99.90;;;;;;5078161;28;20763;-80
2024/02/24 08:33:09;;;;;;;2.10;0.50;;;6.30;99.90;;;;;;5076708;28;20383;-80
2024/02/24 08:35:34;;;;;;;0.60;0.40;;;6.30;99.90;;;;;;5081474;28;20395;-80
2024/02/24 08:38:00;;;;;;;1.60;0.40;;;6.30;99.90;;;;;;5089822;28;20399;-79
2024/02/24 08:40:26;;;;;;;0.63;0.40;;;6.40;99.90;;;;;;5073654;28;20433;-81
2024/02/24 08:42:51;;;;;;;0.80;0.43;;;6.50;99.90;;;;;;5059009;28;20385;-79
2024/02/24 08:45:17;;;;;;;1.05;0.60;;;6.50;99.90;;;;;;5081323;28;20401;-81
2024/02/24 08:47:42;;;;;;;1.33;0.30;;;6.50;99.90;;;;;;5083455;28;20398;-82
2024/02/24 08:50:08;;;;;;;1.40;0.53;;;6.50;99.90;;;;;;5081425;28;20384;-79
2024/02/24 08:52:34;;;;;;;1.07;0.40;;;6.50;99.90;;;;;;5078778;28;20387;-80
2024/02/24 08:54:59;;;;;;;1.50;0.40;;;6.50;99.90;;;;;;5080834;28;20384;-81
2024/02/24 08:57:25;;;;;;;1.80;0.77;;;6.50;99.90;;;;;;5075044;28;20482;-81
2024/02/24 08:59:50;;;;;;;1.50;0.47;;;6.50;99.90;;;;;;5079697;28;20396;-80
2024/02/24 09:02:16;;;;;;;0.90;0.50;;;6.50;99.90;;;;;;5079347;28;20380;-79
2024/02/24 09:04:43;;;;;;;1.30;0.40;;;6.60;99.90;;;;;;5078237;28;20777;-81
2024/02/24 09:07:09;;;;;;;2.58;0.80;;;6.50;99.90;;;;;;5079000;28;20902;-81
2024/02/24 09:09:35;;;;;;;0.90;0.50;;;6.80;99.90;;;;;;5075968;28;20391;-79
2024/02/24 09:12:00;;;;;;;1.77;0.60;;;6.70;99.90;;;;;;5075145;28;20395;-79
2024/02/24 09:14:26;;;;;;;0.70;0.50;;;6.70;99.90;;;;;;5078027;28;20396;-80
2024/02/24 09:16:58;;;;;;;1.00;0.80;;;6.80;99.90;;;;;;5076539;28;20395;-81
2024/02/24 09:19:25;;;;;;;1.10;0.50;;;6.90;99.90;;;;;;5078334;28;20392;-80
2024/02/24 09:21:51;;;;;;;2.00;0.60;;;7.00;99.90;;;;;;5076431;28;20951;-80
2024/02/24 09:24:16;;;;;;;0.80;0.40;;;7.10;99.90;;;;;;5084465;28;20422;-78
2024/02/24 09:26:43;;;;;;;1.13;0.53;;;7.20;99.90;;;;;;5091201;28;20406;-79
2024/02/24 09:29:08;;;;;;;2.42;0.50;;;7.30;99.90;;;;;;5094584;28;20379;-78
2024/02/24 09:31:37;;;;;;;0.90;0.50;;;7.40;99.90;;;;;;5092968;28;20434;-81
2024/02/24 09:34:03;;;;;;;2.00;0.60;;;7.50;99.90;;;;;;5079422;28;20379;-80
2024/02/24 09:36:31;;;;;;;0.80;0.50;;;7.40;99.90;;;;;;5079088;28;20411;-80
2024/02/24 09:38:56;;;;;;;0.80;0.50;;;7.60;99.90;;;;;;5081936;28;20383;-81
2024/02/24 09:41:22;;;;;;;1.07;0.40;;;7.40;99.90;;;;;;5080490;28;20494;-80
2024/02/24 09:43:48;;;;;;;2.22;0.50;;;7.20;99.90;;;;;;5076673;28;20984;-81
2024/02/24 09:46:16;;;;;;;1.20;0.60;;;7.70;99.90;;;;;;5084665;28;20397;-78
2024/02/24 09:48:42;;;;;;;0.63;0.40;;;7.70;99.90;;;;;;5086847;28;20438;-82
2024/02/24 09:51:09;;;;;;;1.60;0.50;;;7.80;99.90;;;;;;5085530;28;20537;-82
2024/02/24 09:53:34;;;;;;;0.90;0.47;;;7.70;99.90;;;;;;5077254;28;20408;-82
2024/02/24 09:56:02;;;;;;;0.80;0.40;;;7.80;99.90;;;;;;5076986;28;20451;-82
2024/02/24 09:58:32;;;;;;;1.30;0.50;;;7.70;99.90;;;;;;5077115;28;20406;-82
2024/02/24 10:00:57;;;;;;;0.60;0.50;;;7.80;99.90;;;;;;5076121;28;20805;-82
2024/02/24 10:03:24;;;;;;;2.40;0.60;;;7.40;99.90;;;;;;5074981;28;20395;-82
2024/02/24 10:05:50;;;;;;;1.00;0.50;;;7.60;99.90;;;;;;5074646;28;20392;-81
2024/02/24 10:08:16;;;;;;;0.70;0.60;;;7.70;99.90;;;;;;5074229;28;20403;-79
2024/02/24 10:10:41;;;;;;;0.80;0.50;;;7.60;99.90;;;;;;5080179;28;20380;-80
2024/02/24 10:13:07;;;;;;;1.00;0.60;;;7.40;99.90;;;;;;5077562;28;20398;-81
2024/02/24 10:15:36;;;;;;;2.13;0.73;;;7.50;99.90;;;;;;5085432;28;20405;-81
2024/02/24 10:18:02;;;;;;;0.82;0.50;;;7.50;99.90;;;;;;5085675;28;20372;-82
2024/02/24 10:20:29;;;;;;;1.23;0.75;;;7.60;99.90;;;;;;5082124;28;20395;-79
2024/02/24 10:22:56;;;;;;;1.20;0.60;;;7.50;99.90;;;;;;5083655;28;20517;-80
2024/02/24 10:25:25;;;;;;;1.07;0.40;;;7.50;99.90;;;;;;5082452;28;20394;-80
2024/02/24 10:27:51;;;;;;;0.80;0.40;;;7.50;99.90;;;;;;5074275;28;20399;-80
2024/02/24 10:30:17;;;;;;;0.70;0.50;;;7.40;99.90;;;;;;5074853;28;21107;-83
2024/02/24 10:32:42;;;;;;;0.60;0.50;;;7.40;99.90;;;;;;5073878;28;20395;-82
2024/02/24 10:35:08;;;;;;;1.00;0.50;;;7.50;99.90;;;;;;5073370;28;20457;-81
2024/02/24 10:37:34;;;;;;;0.70;0.50;;;7.60;99.90;;;;;;5075996;28;20486;-82
2024/02/24 10:40:05;;;;;;;2.38;0.57;;;7.80;99.90;;;;;;5080874;28;20384;-80
2024/02/24 10:42:31;;;;;;;0.80;0.60;;;8.00;99.90;;;;;;5083205;28;20383;-80
2024/02/24 10:44:57;;;;;;;1.30;0.70;;;8.00;99.90;;;;;;5073002;28;20395;-80
2024/02/24 10:47:24;;;;;;;2.20;0.60;;;7.90;99.90;;;;;;5074073;28;20387;-80
2024/02/24 10:49:49;;;;;;;0.63;0.43;;;8.00;99.90;;;;;;5073383;28;20463;-81
2024/02/24 10:52:17;;;;;;;0.70;0.40;;;8.10;99.90;;;;;;5074318;28;20858;-81
2024/02/24 10:54:45;;;;;;;0.90;0.40;;;8.10;99.90;;;;;;5073314;28;20391;-80
2024/02/24 10:57:13;;;;;;;1.40;0.60;;;8.30;99.90;;;;;;5073308;28;20449;-81
2024/02/24 10:59:39;;;;;;;0.82;0.40;;;8.40;99.90;;;;;;5074249;28;20380;-80
2024/02/24 11:02:11;;;;;;;1.17;0.50;;;8.20;99.90;;;;;;5074953;28;20922;-81
2024/02/24 11:04:38;;;;;;;1.17;0.50;;;8.30;99.90;;;;;;5073771;28;20403;-81
2024/02/24 11:07:14;;;;;;;0.70;0.50;;;8.50;99.90;;;;;;5082764;28;20491;-81
2024/02/24 11:09:40;;;;;;;1.10;0.75;;;8.80;99.90;;;;;;5076197;28;20391;-80
2024/02/24 11:12:12;;;;;;;1.40;0.63;;;9.00;99.90;;;;;;5074524;28;20411;-79
2024/02/24 11:14:40;;;;;;;0.80;0.60;;;8.80;99.90;;;;;;5083768;28;20395;-80
2024/02/24 11:17:06;;;;;;;1.00;0.70;;;8.70;99.90;;;;;;5078607;28;20407;-78
2024/02/24 11:19:48;;;;;;;0.70;0.70;;;8.40;99.90;;;;;;5078536;28;20380;-79
2024/02/24 11:22:30;;;;;;;0.88;0.55;;;8.20;99.90;;;;;;5076404;28;20406;-81
2024/02/24 11:25:04;;;;;;;1.58;0.60;;;8.00;99.90;;;;;;5081290;28;20396;-79
2024/02/24 11:27:37;;;;;;;1.40;0.75;;;8.20;99.90;;;;;;5076883;28;20759;-79
2024/02/24 11:30:35;;;;;;;1.00;0.70;;;8.30;99.90;;;;;;5079955;28;20842;-79
2024/02/24 11:33:27;;;;;;;0.95;0.60;;;8.30;99.90;;;;;;5071682;28;20460;-79
2024/02/24 11:35:54;;;;;;;1.02;0.50;;;8.20;99.90;;;;;;5074615;28;20747;-81
2024/02/24 11:38:21;;;;;;;0.80;0.60;;;8.50;99.90;;;;;;5076078;28;20412;-81
2024/02/24 11:40:48;;;;;;;0.80;0.60;;;8.50;99.90;;;;;;5072989;28;20416;-80
2024/02/24 11:43:15;;;;;;;0.70;0.50;;;9.10;99.90;;;;;;5068952;28;20911;-81
2024/02/24 11:45:48;;;;;;;0.98;0.60;;;9.70;99.90;;;;;;5071477;28;20383;-79
2024/02/24 11:48:14;;;;;;;0.98;0.60;;;10.30;99.90;;;;;;5072920;28;20446;-80
2024/02/24 11:50:41;;;;;;;1.00;0.60;;;10.50;99.90;;;;;;5072472;28;20470;-81
2024/02/24 11:53:07;;;;;;;1.27;0.70;;;9.60;99.90;;;;;;5071301;28;20388;-79
2024/02/24 11:55:33;;;;;;;1.23;0.52;;;9.50;99.90;;;;;;5072891;28;20380;-80
2024/02/24 11:57:59;;;;;;;1.30;0.53;;;9.50;99.90;;;;;;5074322;28;20399;-81
2024/02/24 12:00:24;;;;;;;1.33;0.90;;;10.20;99.90;;;;;;5074675;28;20380;-81
2024/02/24 12:02:50;;;;;;;0.80;0.60;;;11.20;99.90;;;;;;5068300;28;20410;-81
2024/02/24 12:05:16;;;;;;;1.10;0.60;;;11.20;99.90;;;;;;5070558;28;20386;-80
2024/02/24 12:07:42;;;;;;;0.75;0.60;;;11.30;99.90;;;;;;5067210;28;20380;-80
2024/02/24 12:10:09;;;;;;;1.30;0.70;;;12.20;99.90;;;;;;5071371;28;20380;-80
2024/02/24 12:12:35;;;;;;;1.70;0.50;;;12.50;99.90;;;;;;5070071;28;20392;-80
2024/02/24 12:15:01;;;;;;;0.70;0.50;;;12.90;99.90;;;;;;5071209;28;20436;-79
2024/02/24 12:17:26;;;;;;;1.43;0.60;;;12.50;99.90;;;;;;5070248;28;20959;-80
2024/02/24 12:19:53;;;;;;;0.90;0.60;;;11.70;99.90;;;;;;5071862;28;20406;-79
2024/02/24 12:22:22;;;;;;;1.20;0.70;;;10.80;99.90;;;;;;5071206;28;20751;-79
2024/02/24 12:24:48;;;;;;;1.25;0.75;;;10.50;99.90;;;;;;5072596;28;20890;-79
2024/02/24 12:27:13;;;;;;;1.20;0.50;;;10.10;99.90;;;;;;5071215;28;20403;-79
2024/02/24 12:29:39;;;;;;;1.40;0.60;;;9.80;99.90;;;;;;5070888;28;20396;-79
2024/02/24 12:32:05;;;;;;;0.87;0.67;;;10.00;99.90;;;;;;5072034;28;20484;-78
2024/02/24 12:34:32;;;;;;;0.90;0.80;;;9.70;99.90;;;;;;5070972;28;20437;-78
2024/02/24 12:36:58;;;;;;;0.93;0.55;;;9.80;99.90;;;;;;5072077;28;20494;-81
2024/02/24 12:39:24;;;;;;;0.90;0.57;;;9.50;99.90;;;;;;5069617;28;20396;-79
2024/02/24 12:41:52;;;;;;;1.85;0.70;;;9.40;99.90;;;;;;5072183;28;20415;-80
2024/02/24 12:44:17;;;;;;;0.90;0.50;;;9.40;99.90;;;;;;5071137;28;20406;-81
2024/02/24 12:46:44;;;;;;;0.73;0.67;;;9.30;99.90;;;;;;5069498;28;20482;-80
2024/02/24 12:49:09;;;;;;;2.00;0.90;;;9.30;99.90;;;;;;5073548;28;21142;-81
2024/02/24 12:51:35;;;;;;;0.70;0.55;;;9.20;99.90;;;;;;5072613;28;20383;-79